KADM/ADM METAR and TAF weather

Enter ICAO airport designator
Station Type Date Time Source
KADM METAR 2018/12/12 15:55 UTC NOAA

KADM 121555Z 18007KT 10SM SCT090 SCT120 11/08 A2997


Station Type Date Time Source
KADM Decoded METAR 2018/12/12 15:55 UTC NOAA

Ardmore, Ardmore Municipal Airport, OK, United States (KADM) 34-18-11N 097-01-10W
Dec 12, 2018 - 10:55 AM EST / 2018.12.12 1555 UTC
Wind: from the S (180 degrees) at 8 MPH (7 KT):0
Visibility: 10 mile(s):0
Sky conditions: partly cloudy
Temperature: 51 F (11 C)
Dew Point: 46 F (8 C)
Relative Humidity: 81%
Pressure (altimeter): 29.97 in. Hg (1014 hPa)
ob: KADM 121555Z 18007KT 10SM SCT090 SCT120 11/08 A2997
cycle: 16

Station Type Date Time Source
KADM TAF UTC NOAA

Error!


Example: see airport list